createdAt,value
2023-04-30T00:00:59.741Z,26.50
2023-04-30T00:03:07.197Z,26.50
2023-04-30T00:05:14.870Z,26.40
2023-04-30T00:07:24.150Z,26.40
2023-04-30T00:09:31.444Z,26.40
2023-04-30T00:11:40.510Z,26.40
2023-04-30T00:13:48.152Z,26.40
2023-04-30T00:15:55.566Z,26.40
2023-04-30T00:18:08.551Z,26.40
2023-04-30T00:20:16.719Z,26.40
2023-04-30T00:22:24.256Z,26.30
2023-04-30T00:24:31.540Z,26.30
2023-04-30T00:26:41.126Z,26.30
2023-04-30T00:28:48.315Z,26.30
2023-04-30T00:30:55.904Z,26.20
2023-04-30T00:33:03.385Z,26.20
2023-04-30T00:35:12.475Z,26.20
2023-04-30T00:37:21.077Z,26.20
2023-04-30T00:39:28.854Z,26.20
2023-04-30T00:41:38.255Z,26.20
2023-04-30T00:43:48.061Z,26.20
2023-04-30T00:45:55.328Z,26.10
2023-04-30T00:48:03.801Z,26.10
2023-04-30T00:50:14.356Z,26.10
2023-04-30T00:52:21.949Z,26.00
2023-04-30T00:54:29.897Z,26.10
2023-04-30T00:56:37.544Z,26.00
2023-04-30T00:58:47.177Z,26.00
2023-04-30T01:00:55.622Z,25.90
2023-04-30T01:03:03.626Z,26.00
2023-04-30T01:05:11.898Z,26.00
2023-04-30T01:07:19.188Z,26.00
2023-04-30T01:09:26.922Z,26.00
2023-04-30T01:11:43.736Z,26.10
2023-04-30T01:13:57.571Z,26.10
2023-04-30T01:16:21.452Z,26.20
2023-04-30T01:18:34.735Z,26.20
2023-04-30T01:20:47.228Z,26.30
2023-04-30T01:22:59.982Z,26.30
2023-04-30T01:25:21.031Z,26.30
2023-04-30T01:27:45.687Z,26.40
2023-04-30T01:29:57.108Z,26.30
2023-04-30T01:32:06.445Z,26.40
2023-04-30T01:34:13.738Z,26.40
2023-04-30T01:36:40.420Z,26.40
2023-04-30T01:39:06.492Z,26.40
2023-04-30T01:41:21.410Z,26.40
2023-04-30T01:43:39.189Z,26.40
2023-04-30T01:46:01.107Z,26.40
2023-04-30T01:48:20.633Z,26.30
2023-04-30T01:50:41.001Z,26.30
2023-04-30T01:52:59.884Z,26.40
2023-04-30T01:55:15.669Z,26.40
2023-04-30T01:57:30.937Z,26.40
2023-04-30T01:59:41.807Z,26.30
2023-04-30T02:01:51.794Z,26.30
2023-04-30T02:03:59.303Z,26.20
2023-04-30T02:06:07.065Z,26.20
2023-04-30T02:08:14.992Z,26.30
2023-04-30T02:10:24.326Z,26.30
2023-04-30T02:12:32.478Z,26.40
2023-04-30T02:14:40.214Z,26.40
2023-04-30T02:16:47.617Z,26.50
2023-04-30T02:18:58.570Z,26.50
2023-04-30T02:21:09.289Z,26.50
2023-04-30T02:23:19.385Z,26.50
2023-04-30T02:25:27.335Z,26.50
2023-04-30T02:27:37.996Z,26.50
2023-04-30T02:29:45.393Z,26.40
2023-04-30T02:31:52.811Z,26.40
2023-04-30T02:34:02.319Z,26.40
2023-04-30T02:36:10.156Z,26.40
2023-04-30T02:38:38.481Z,26.40
2023-04-30T02:40:47.077Z,26.40
2023-04-30T02:42:56.070Z,26.40
2023-04-30T02:45:03.290Z,26.40
2023-04-30T02:47:10.740Z,26.30
2023-04-30T02:49:20.029Z,26.30
2023-04-30T02:51:27.971Z,26.30
2023-04-30T02:53:35.128Z,26.30
2023-04-30T02:55:48.887Z,26.30
2023-04-30T02:57:56.224Z,26.30
2023-04-30T03:00:03.817Z,26.30
2023-04-30T03:02:11.220Z,26.40
2023-04-30T03:04:20.532Z,26.40
2023-04-30T03:06:28.155Z,26.40
2023-04-30T03:08:35.766Z,26.40
2023-04-30T03:10:43.209Z,26.40
2023-04-30T03:12:50.893Z,26.40
2023-04-30T03:14:58.422Z,26.40
2023-04-30T03:17:06.130Z,26.40
2023-04-30T03:19:13.311Z,26.50
2023-04-30T03:21:22.489Z,26.50
2023-04-30T03:23:34.486Z,26.60
2023-04-30T03:25:42.282Z,26.60
2023-04-30T03:27:49.528Z,26.60
2023-04-30T03:29:57.273Z,26.60
2023-04-30T03:32:10.382Z,26.60
2023-04-30T03:34:21.234Z,26.60
2023-04-30T03:36:31.145Z,26.60
2023-04-30T03:38:38.441Z,26.60
2023-04-30T03:40:45.608Z,26.70
2023-04-30T03:42:53.359Z,26.70
2023-04-30T03:45:00.697Z,26.70
2023-04-30T03:47:08.350Z,26.70
2023-04-30T03:49:15.516Z,26.70
2023-04-30T03:51:30.330Z,26.70
2023-04-30T03:53:39.562Z,26.80
2023-04-30T03:55:47.455Z,27.00
2023-04-30T03:57:55.511Z,27.10
2023-04-30T04:00:03.100Z,27.20
2023-04-30T04:02:26.991Z,27.30
2023-04-30T04:04:36.273Z,27.20
2023-04-30T04:06:43.788Z,27.30
2023-04-30T04:08:53.133Z,27.30
2023-04-30T04:11:10.292Z,27.40
2023-04-30T04:13:22.083Z,27.60
2023-04-30T04:15:29.213Z,27.60
2023-04-30T04:17:36.666Z,27.70
2023-04-30T04:19:52.293Z,27.80
2023-04-30T04:22:00.611Z,27.90
2023-04-30T04:24:11.053Z,28.10
2023-04-30T04:26:20.687Z,28.20
2023-04-30T04:28:28.389Z,28.30
2023-04-30T04:30:36.385Z,28.50
2023-04-30T04:32:47.998Z,28.60
2023-04-30T04:34:58.063Z,28.70
2023-04-30T04:37:05.242Z,28.70
2023-04-30T04:39:14.580Z,28.70
2023-04-30T04:41:22.014Z,28.70
2023-04-30T04:43:29.557Z,28.60
2023-04-30T04:45:36.939Z,28.60
2023-04-30T04:47:44.420Z,28.60
2023-04-30T04:49:51.754Z,28.70
2023-04-30T04:51:59.454Z,28.70
2023-04-30T04:54:06.855Z,28.80
2023-04-30T04:56:16.025Z,28.90
2023-04-30T04:58:24.241Z,28.90
2023-04-30T05:00:32.487Z,28.90
2023-04-30T05:02:39.843Z,28.80
2023-04-30T05:04:48.071Z,28.90
2023-04-30T05:06:55.664Z,29.00
2023-04-30T05:09:03.717Z,29.10
2023-04-30T05:11:10.848Z,29.20
2023-04-30T05:13:20.236Z,29.30
2023-04-30T05:15:27.614Z,29.50
2023-04-30T05:17:35.342Z,29.60
2023-04-30T05:19:42.545Z,29.70
2023-04-30T05:21:49.990Z,29.70
2023-04-30T05:23:57.432Z,29.90
2023-04-30T05:26:04.907Z,29.80
2023-04-30T05:28:12.464Z,29.60
2023-04-30T05:30:21.573Z,29.30
2023-04-30T05:32:30.615Z,29.10
2023-04-30T05:34:37.786Z,29.10
2023-04-30T05:36:45.221Z,29.20
2023-04-30T05:38:52.712Z,29.30
2023-04-30T05:41:00.268Z,29.40
2023-04-30T05:43:07.532Z,29.50
2023-04-30T05:45:18.244Z,29.60
2023-04-30T05:47:27.337Z,29.50
2023-04-30T05:49:36.277Z,29.30
2023-04-30T05:51:43.629Z,29.30
2023-04-30T05:53:51.018Z,29.30
2023-04-30T05:55:58.277Z,29.50
2023-04-30T05:58:06.308Z,29.70
2023-04-30T06:00:14.303Z,29.70
2023-04-30T06:02:21.966Z,29.90
2023-04-30T06:04:31.892Z,30.00
2023-04-30T06:06:39.335Z,30.00
2023-04-30T06:08:46.615Z,30.00
2023-04-30T06:10:55.383Z,30.00
2023-04-30T06:13:02.823Z,29.90
2023-04-30T06:15:11.344Z,30.00
2023-04-30T06:17:18.485Z,30.10
2023-04-30T06:19:25.903Z,30.10
2023-04-30T06:21:35.032Z,30.20
2023-04-30T06:23:42.365Z,30.50
2023-04-30T06:25:49.752Z,30.40
2023-04-30T06:27:57.171Z,30.40
2023-04-30T06:30:04.628Z,30.40
2023-04-30T06:32:11.817Z,30.40
2023-04-30T06:34:19.023Z,30.40
2023-04-30T06:36:26.480Z,30.30
2023-04-30T06:38:35.505Z,30.20
2023-04-30T06:40:43.044Z,30.20
2023-04-30T06:42:50.279Z,30.30
2023-04-30T06:44:58.174Z,30.30
2023-04-30T06:47:05.366Z,30.20
2023-04-30T06:49:12.754Z,30.30
2023-04-30T06:51:19.872Z,30.30
2023-04-30T06:53:27.568Z,30.40
2023-04-30T06:55:36.386Z,30.40
2023-04-30T06:57:43.983Z,30.30
2023-04-30T06:59:51.271Z,30.20
2023-04-30T07:01:58.743Z,30.20
2023-04-30T07:04:06.134Z,30.30
2023-04-30T07:06:13.809Z,30.30
2023-04-30T07:08:21.059Z,30.40
2023-04-30T07:10:28.849Z,30.40
2023-04-30T07:12:37.733Z,30.40
2023-04-30T07:14:45.582Z,30.50
2023-04-30T07:16:54.803Z,30.60
2023-04-30T07:19:02.862Z,30.80
2023-04-30T07:21:10.348Z,30.80
2023-04-30T07:23:17.884Z,30.90
2023-04-30T07:25:25.372Z,30.90
2023-04-30T07:27:32.966Z,30.90
2023-04-30T07:29:41.936Z,30.70
2023-04-30T07:31:49.385Z,30.70
2023-04-30T07:33:57.016Z,30.70
2023-04-30T07:36:04.503Z,30.70
2023-04-30T07:38:11.842Z,30.80
2023-04-30T07:40:34.497Z,30.90
2023-04-30T07:42:43.971Z,31.00
2023-04-30T07:44:53.921Z,31.00
2023-04-30T07:47:01.201Z,31.00
2023-04-30T07:49:08.816Z,31.10
2023-04-30T07:51:16.081Z,31.20
2023-04-30T07:53:23.666Z,31.30
2023-04-30T07:55:31.167Z,31.30
2023-04-30T07:57:38.902Z,31.30
2023-04-30T07:59:45.980Z,31.40
2023-04-30T08:01:55.105Z,31.40
2023-04-30T08:04:02.606Z,31.40
2023-04-30T08:06:10.363Z,31.50
2023-04-30T08:08:17.528Z,31.60
2023-04-30T08:10:25.188Z,31.60
2023-04-30T08:12:32.352Z,31.70
2023-04-30T08:14:39.993Z,31.70
2023-04-30T08:16:47.240Z,31.70
2023-04-30T08:18:56.557Z,31.80
2023-04-30T08:21:04.916Z,31.90
2023-04-30T08:23:12.595Z,32.00
2023-04-30T08:25:19.902Z,32.10
2023-04-30T08:27:27.640Z,32.20
2023-04-30T08:29:34.771Z,32.10
2023-04-30T08:31:42.309Z,32.20
2023-04-30T08:33:49.542Z,32.30
2023-04-30T08:35:58.823Z,32.50
2023-04-30T08:38:06.058Z,32.50
2023-04-30T08:40:15.144Z,32.50
2023-04-30T08:42:25.291Z,32.40
2023-04-30T08:44:34.108Z,32.40
2023-04-30T08:46:45.695Z,32.40
2023-04-30T08:48:53.636Z,32.50
2023-04-30T08:51:04.313Z,32.50
2023-04-30T08:53:13.734Z,32.60
2023-04-30T08:55:21.365Z,32.60
2023-04-30T08:57:29.223Z,32.70
2023-04-30T08:59:36.459Z,32.70
2023-04-30T09:01:44.745Z,32.70
2023-04-30T09:03:52.254Z,32.70
2023-04-30T09:06:01.842Z,32.70
2023-04-30T09:08:10.362Z,32.80
2023-04-30T09:10:21.283Z,32.70
2023-04-30T09:12:28.504Z,32.70
2023-04-30T09:14:41.166Z,32.70
2023-04-30T09:16:55.824Z,32.60
2023-04-30T09:19:03.669Z,32.50
2023-04-30T09:21:12.694Z,32.40
2023-04-30T09:23:20.091Z,32.40
2023-04-30T09:25:43.291Z,32.30
2023-04-30T09:27:50.622Z,32.10
2023-04-30T09:29:57.734Z,32.00
2023-04-30T09:32:12.819Z,31.90
2023-04-30T09:34:20.154Z,31.70
2023-04-30T09:36:29.334Z,31.50
2023-04-30T09:38:37.181Z,31.50
2023-04-30T09:40:46.257Z,31.50
2023-04-30T09:43:03.432Z,31.50
2023-04-30T09:45:14.140Z,31.60
2023-04-30T09:47:22.526Z,31.60
2023-04-30T09:49:30.140Z,31.50
2023-04-30T09:51:38.755Z,31.50
2023-04-30T09:53:47.422Z,31.50
2023-04-30T09:55:57.365Z,31.50
2023-04-30T09:58:08.296Z,31.50
2023-04-30T10:00:16.502Z,31.50
2023-04-30T10:02:24.336Z,31.50
2023-04-30T10:04:34.751Z,31.50
2023-04-30T10:06:45.430Z,31.60
2023-04-30T10:08:54.743Z,31.70
2023-04-30T10:11:07.103Z,31.80
2023-04-30T10:13:18.238Z,31.80
2023-04-30T10:15:28.940Z,31.90
2023-04-30T10:17:42.003Z,31.90
2023-04-30T10:19:53.209Z,31.80
2023-04-30T10:22:02.675Z,31.80
2023-04-30T10:24:11.436Z,31.80
2023-04-30T10:26:19.185Z,31.70
2023-04-30T10:28:27.953Z,31.60
2023-04-30T10:30:35.796Z,31.60
2023-04-30T10:32:47.536Z,31.50
2023-04-30T10:35:03.315Z,31.40
2023-04-30T10:37:19.663Z,31.30
2023-04-30T10:39:28.634Z,31.30
2023-04-30T10:41:36.232Z,31.20
2023-04-30T10:43:43.562Z,31.20
2023-04-30T10:45:51.352Z,31.10
2023-04-30T10:47:59.702Z,31.00
2023-04-30T10:50:07.820Z,31.00
2023-04-30T10:52:16.387Z,31.00
2023-04-30T10:54:29.914Z,30.90
2023-04-30T10:56:37.615Z,30.90
2023-04-30T10:58:45.215Z,30.90
2023-04-30T11:01:03.545Z,30.80
2023-04-30T11:03:10.745Z,30.90
2023-04-30T11:05:19.445Z,30.90
2023-04-30T11:07:31.953Z,30.80
2023-04-30T11:09:47.375Z,30.80
2023-04-30T11:12:06.381Z,30.80
2023-04-30T11:14:16.023Z,30.80
2023-04-30T11:16:23.194Z,30.70
2023-04-30T11:18:32.178Z,30.70
2023-04-30T11:20:44.387Z,30.60
2023-04-30T11:23:10.873Z,30.60
2023-04-30T11:25:23.519Z,30.60
2023-04-30T11:27:31.269Z,30.60
2023-04-30T11:29:39.525Z,30.50
2023-04-30T11:31:47.365Z,30.50
2023-04-30T11:33:55.485Z,30.50
2023-04-30T11:36:04.449Z,30.50
2023-04-30T11:38:15.572Z,30.40
2023-04-30T11:40:36.169Z,30.40
2023-04-30T11:42:47.598Z,30.40
2023-04-30T11:44:54.476Z,30.40
2023-04-30T11:47:01.932Z,30.40
2023-04-30T11:49:09.100Z,30.30
2023-04-30T11:51:23.443Z,30.30
2023-04-30T11:53:35.283Z,30.20
2023-04-30T11:55:44.205Z,30.20
2023-04-30T11:57:53.334Z,30.20
2023-04-30T12:00:11.008Z,30.20
2023-04-30T12:02:20.421Z,30.10
2023-04-30T12:04:27.670Z,30.10
2023-04-30T12:06:40.418Z,30.10
2023-04-30T12:08:49.368Z,30.10
2023-04-30T12:10:56.714Z,30.10
2023-04-30T12:15:27.796Z,29.90
2023-04-30T12:17:39.168Z,29.90
2023-04-30T12:19:45.647Z,29.90
2023-04-30T12:21:53.100Z,29.90
2023-04-30T12:24:03.446Z,29.90
2023-04-30T12:26:11.237Z,29.90
2023-04-30T12:28:18.580Z,29.90
2023-04-30T12:30:27.872Z,29.80
2023-04-30T12:32:35.368Z,29.80
2023-04-30T12:34:42.777Z,29.80
2023-04-30T12:36:50.112Z,29.80
2023-04-30T12:39:10.359Z,29.70
2023-04-30T12:41:18.614Z,29.70
2023-04-30T12:43:25.853Z,29.70
2023-04-30T12:45:49.900Z,29.70
2023-04-30T12:47:58.122Z,29.60
2023-04-30T12:50:05.980Z,29.60
2023-04-30T12:52:14.250Z,29.60
2023-04-30T12:54:31.298Z,29.50
2023-04-30T12:56:38.116Z,29.50
2023-04-30T12:58:48.371Z,29.50
2023-04-30T13:00:55.910Z,29.40
2023-04-30T13:03:03.197Z,29.40
2023-04-30T13:05:11.754Z,29.40
2023-04-30T13:07:20.218Z,29.40
2023-04-30T13:09:28.888Z,29.30
2023-04-30T13:11:36.026Z,29.30
2023-04-30T13:13:43.298Z,29.30
2023-04-30T13:15:50.697Z,29.30
2023-04-30T13:17:58.250Z,29.30
2023-04-30T13:20:05.882Z,29.30
2023-04-30T13:22:13.010Z,29.30
2023-04-30T13:24:20.383Z,29.30
2023-04-30T13:26:29.458Z,29.40
2023-04-30T13:28:36.595Z,29.40
2023-04-30T13:30:43.874Z,29.30
2023-04-30T13:32:50.977Z,29.40
2023-04-30T13:34:59.466Z,29.30
2023-04-30T13:37:06.495Z,29.30
2023-04-30T13:39:14.043Z,29.30
2023-04-30T13:41:21.784Z,29.40
2023-04-30T13:43:30.754Z,29.30
2023-04-30T13:45:37.853Z,29.30
2023-04-30T13:47:45.333Z,29.30
2023-04-30T13:49:52.324Z,29.30
2023-04-30T13:51:59.634Z,29.30
2023-04-30T13:54:06.889Z,29.30
2023-04-30T13:56:14.052Z,29.30
2023-04-30T13:58:21.489Z,29.30
2023-04-30T14:00:30.293Z,29.30
2023-04-30T14:02:37.800Z,29.20
2023-04-30T14:04:51.733Z,29.20
2023-04-30T14:07:09.571Z,29.20
2023-04-30T14:09:16.851Z,29.10
2023-04-30T14:11:23.726Z,29.10
2023-04-30T14:13:30.856Z,29.10
2023-04-30T14:15:39.731Z,29.00
2023-04-30T14:17:46.900Z,29.00
2023-04-30T14:19:54.284Z,28.90
2023-04-30T14:22:01.590Z,28.80
2023-04-30T14:24:09.117Z,28.80
2023-04-30T14:26:16.509Z,28.70
2023-04-30T14:28:23.589Z,28.70
2023-04-30T14:30:30.920Z,28.50
2023-04-30T14:32:39.751Z,28.50
2023-04-30T14:34:47.123Z,28.50
2023-04-30T14:36:54.359Z,28.50
2023-04-30T14:39:01.495Z,28.50
2023-04-30T14:41:08.359Z,28.50
2023-04-30T14:43:15.951Z,28.50
2023-04-30T14:45:23.048Z,28.40
2023-04-30T14:47:30.990Z,28.30
2023-04-30T14:49:40.731Z,28.30
2023-04-30T14:51:47.599Z,28.30
2023-04-30T14:53:58.159Z,28.30
2023-04-30T14:56:05.504Z,28.30
2023-04-30T14:58:13.354Z,28.30
2023-04-30T15:00:21.191Z,28.30
2023-04-30T15:02:28.619Z,28.30
2023-04-30T15:04:35.756Z,28.30
2023-04-30T15:06:45.007Z,28.30
2023-04-30T15:08:51.860Z,28.30
2023-04-30T15:10:59.615Z,28.30
2023-04-30T15:13:07.199Z,28.20
2023-04-30T15:15:16.243Z,28.20
2023-04-30T15:17:25.782Z,28.20
2023-04-30T15:19:33.916Z,28.20
2023-04-30T15:21:40.738Z,28.20
2023-04-30T15:23:49.612Z,28.20
2023-04-30T15:25:57.918Z,28.10
2023-04-30T15:28:05.305Z,28.10
2023-04-30T15:30:13.507Z,28.10
2023-04-30T15:32:20.329Z,28.20
2023-04-30T15:34:27.516Z,28.20
2023-04-30T15:36:34.814Z,28.10
2023-04-30T15:38:42.132Z,28.20
2023-04-30T15:40:50.803Z,28.10
2023-04-30T15:42:57.936Z,28.20
2023-04-30T15:45:04.955Z,28.10
2023-04-30T15:47:12.562Z,28.10
2023-04-30T15:49:19.623Z,28.00
2023-04-30T15:51:27.119Z,28.00
2023-04-30T15:53:33.946Z,28.00
2023-04-30T15:55:41.481Z,27.80
2023-04-30T15:57:50.253Z,27.80
2023-04-30T15:59:58.520Z,27.80
2023-04-30T16:02:05.837Z,27.70
2023-04-30T16:04:13.169Z,27.70
2023-04-30T16:06:20.600Z,27.70
2023-04-30T16:08:27.749Z,27.70
2023-04-30T16:10:34.569Z,27.80
2023-04-30T16:12:42.262Z,27.70
2023-04-30T16:14:51.082Z,27.70
2023-04-30T16:16:58.597Z,27.70
2023-04-30T16:19:05.853Z,27.80
2023-04-30T16:21:14.112Z,27.70
2023-04-30T16:23:21.140Z,27.70
2023-04-30T16:25:28.789Z,27.70
2023-04-30T16:27:37.312Z,27.70
2023-04-30T16:29:44.832Z,27.70
2023-04-30T16:31:53.758Z,27.70
2023-04-30T16:34:01.243Z,27.60
2023-04-30T16:36:08.373Z,27.70
2023-04-30T16:38:15.973Z,27.70
2023-04-30T16:40:22.990Z,27.70
2023-04-30T16:42:31.919Z,27.60
2023-04-30T16:44:39.007Z,27.60
2023-04-30T16:46:46.175Z,27.50
2023-04-30T16:48:54.995Z,27.40
2023-04-30T16:51:02.175Z,27.30
2023-04-30T16:53:10.884Z,27.30
2023-04-30T16:55:18.694Z,27.30
2023-04-30T16:57:26.442Z,27.30
2023-04-30T16:59:33.669Z,27.20
2023-04-30T17:01:41.168Z,27.10
2023-04-30T17:03:48.402Z,27.10
2023-04-30T17:05:58.287Z,27.10
2023-04-30T17:08:05.107Z,27.10
2023-04-30T17:10:13.694Z,27.00
2023-04-30T17:12:20.544Z,27.10
2023-04-30T17:14:27.938Z,27.10
2023-04-30T17:16:34.908Z,27.20
2023-04-30T17:18:42.305Z,27.20
2023-04-30T17:20:50.713Z,27.20
2023-04-30T17:25:19.764Z,27.20
2023-04-30T17:27:28.174Z,27.20
2023-04-30T17:29:35.305Z,27.10
2023-04-30T17:31:42.560Z,27.20
2023-04-30T17:33:49.921Z,27.10
2023-04-30T17:35:57.206Z,27.00
2023-04-30T17:38:05.720Z,27.10
2023-04-30T17:40:13.778Z,27.00
2023-04-30T17:42:20.864Z,27.10
2023-04-30T17:44:28.257Z,27.10
2023-04-30T17:46:35.434Z,27.00
2023-04-30T17:48:42.976Z,27.00
2023-04-30T17:50:50.474Z,26.90
2023-04-30T17:52:58.911Z,26.90
2023-04-30T17:55:08.750Z,26.90
2023-04-30T17:57:16.144Z,26.90
2023-04-30T17:59:23.326Z,26.80
2023-04-30T18:01:30.813Z,26.80
2023-04-30T18:03:38.851Z,26.80
2023-04-30T18:05:46.254Z,26.80
2023-04-30T18:07:53.432Z,26.80
2023-04-30T18:10:00.766Z,26.80
2023-04-30T18:12:09.743Z,26.80
2023-04-30T18:14:16.834Z,26.80
2023-04-30T18:16:23.751Z,26.70
2023-04-30T18:18:30.992Z,26.70
2023-04-30T18:20:38.015Z,26.60
2023-04-30T18:22:45.622Z,26.60
2023-04-30T18:24:54.497Z,26.60
2023-04-30T18:27:02.017Z,26.60
2023-04-30T18:29:10.787Z,26.70
2023-04-30T18:31:18.315Z,26.60
2023-04-30T18:33:25.463Z,26.60
2023-04-30T18:35:33.052Z,26.60
2023-04-30T18:37:40.116Z,26.60
2023-04-30T18:39:47.453Z,26.60
2023-04-30T18:41:54.744Z,26.60
2023-04-30T18:44:02.277Z,26.60
2023-04-30T18:46:10.972Z,26.60
2023-04-30T18:48:20.030Z,26.60
2023-04-30T18:50:28.384Z,26.70
2023-04-30T18:52:35.920Z,26.60
2023-04-30T18:54:45.366Z,26.60
2023-04-30T18:56:52.738Z,26.60
2023-04-30T18:58:59.625Z,26.40
2023-04-30T19:01:09.489Z,26.30
2023-04-30T19:03:18.358Z,26.20
2023-04-30T19:05:25.926Z,26.20
2023-04-30T19:07:32.950Z,26.20
2023-04-30T19:09:40.346Z,26.20
2023-04-30T19:11:47.478Z,26.30
2023-04-30T19:13:54.812Z,26.30
2023-04-30T19:16:03.365Z,26.30
2023-04-30T19:18:13.734Z,26.30
2023-04-30T19:20:22.648Z,26.30
2023-04-30T19:22:29.526Z,26.30
2023-04-30T19:24:37.050Z,26.20
2023-04-30T19:26:44.347Z,26.30
2023-04-30T19:28:51.580Z,26.30
2023-04-30T19:30:59.360Z,26.30
2023-04-30T19:33:06.878Z,26.30
2023-04-30T19:35:14.094Z,26.30
2023-04-30T19:37:23.073Z,26.20
2023-04-30T19:39:35.010Z,26.20
2023-04-30T19:41:42.468Z,26.20
2023-04-30T19:43:49.680Z,26.20
2023-04-30T19:45:57.469Z,26.10
2023-04-30T19:48:05.104Z,26.10
2023-04-30T19:50:12.886Z,26.10
2023-04-30T19:52:21.838Z,26.10
2023-04-30T19:54:29.286Z,26.10
2023-04-30T19:56:37.071Z,26.10
2023-04-30T19:58:44.942Z,26.20
2023-04-30T20:00:52.370Z,26.20
2023-04-30T20:03:02.275Z,26.20
2023-04-30T20:05:11.226Z,26.20
2023-04-30T20:07:19.741Z,26.20
2023-04-30T20:09:28.762Z,26.20
2023-04-30T20:11:35.535Z,26.20
2023-04-30T20:13:42.768Z,26.20
2023-04-30T20:15:50.177Z,26.20
2023-04-30T20:17:57.603Z,26.20
2023-04-30T20:20:04.928Z,26.20
2023-04-30T20:22:14.143Z,26.20
2023-04-30T20:24:22.622Z,26.10
2023-04-30T20:26:31.748Z,26.00
2023-04-30T20:28:39.489Z,25.90
2023-04-30T20:30:49.035Z,25.90
2023-04-30T20:32:56.465Z,25.90
2023-04-30T20:35:03.801Z,25.90
2023-04-30T20:37:10.939Z,26.00
2023-04-30T20:39:18.393Z,26.00
2023-04-30T20:41:25.497Z,26.00
2023-04-30T20:43:34.278Z,26.10
2023-04-30T20:45:41.860Z,26.10
2023-04-30T20:47:48.771Z,26.10
2023-04-30T20:49:56.049Z,26.20
2023-04-30T20:52:03.201Z,26.10
2023-04-30T20:54:11.355Z,26.10
2023-04-30T20:56:18.384Z,26.10
2023-04-30T20:58:25.470Z,26.10
2023-04-30T21:00:34.391Z,26.10
2023-04-30T21:02:41.613Z,26.10
2023-04-30T21:04:48.804Z,26.10
2023-04-30T21:06:56.248Z,26.10
2023-04-30T21:09:03.368Z,26.00
2023-04-30T21:11:10.502Z,26.00
2023-04-30T21:13:18.089Z,25.90
2023-04-30T21:15:25.528Z,25.80
2023-04-30T21:17:34.395Z,25.70
2023-04-30T21:19:41.530Z,25.70
2023-04-30T21:21:48.410Z,25.70
2023-04-30T21:23:56.215Z,25.60
2023-04-30T21:26:03.262Z,25.60
2023-04-30T21:28:10.618Z,25.70
2023-04-30T21:30:18.120Z,25.70
2023-04-30T21:32:25.055Z,25.80
2023-04-30T21:34:36.155Z,25.80
2023-04-30T21:36:43.251Z,25.80
2023-04-30T21:38:50.789Z,25.80
2023-04-30T21:40:58.011Z,25.80
2023-04-30T21:43:05.093Z,25.90
2023-04-30T21:45:12.793Z,25.90
2023-04-30T21:47:19.985Z,25.80
2023-04-30T21:49:27.136Z,25.90
2023-04-30T21:51:37.405Z,25.90
2023-04-30T21:53:44.556Z,25.90
2023-04-30T21:55:51.708Z,25.90
2023-04-30T21:57:58.992Z,25.80
2023-04-30T22:00:07.503Z,25.80
2023-04-30T22:02:23.752Z,25.90
2023-04-30T22:04:31.441Z,25.80
2023-04-30T22:06:40.561Z,25.80
2023-04-30T22:08:47.495Z,25.80
2023-04-30T22:10:59.893Z,25.80
2023-04-30T22:13:06.776Z,25.80
2023-04-30T22:15:15.081Z,25.80
2023-04-30T22:17:22.183Z,25.90
2023-04-30T22:19:29.605Z,25.90
2023-04-30T22:21:36.739Z,25.90
2023-04-30T22:23:45.900Z,25.90
2023-04-30T22:25:53.249Z,25.90
2023-04-30T22:28:00.569Z,25.90
2023-04-30T22:30:08.059Z,26.00
2023-04-30T22:32:15.706Z,25.90
2023-04-30T22:34:24.266Z,25.90
2023-04-30T22:36:31.601Z,25.90
2023-04-30T22:38:38.692Z,25.90
2023-04-30T22:40:47.894Z,25.90
2023-04-30T22:42:55.455Z,25.80
2023-04-30T22:45:03.258Z,25.80
2023-04-30T22:47:10.252Z,25.80
2023-04-30T22:49:29.842Z,25.70
2023-04-30T22:51:38.666Z,25.70
2023-04-30T22:53:46.077Z,25.60
2023-04-30T22:55:55.846Z,25.70
2023-04-30T22:58:03.079Z,25.70
2023-04-30T23:00:11.489Z,25.70
2023-04-30T23:02:18.839Z,25.80
2023-04-30T23:04:25.753Z,25.80
2023-04-30T23:06:33.161Z,25.80
2023-04-30T23:08:40.231Z,25.80
2023-04-30T23:10:48.324Z,25.80
2023-04-30T23:12:57.548Z,25.80
2023-04-30T23:15:05.038Z,25.90
2023-04-30T23:17:11.914Z,25.90
2023-04-30T23:19:19.042Z,25.90
2023-04-30T23:21:25.917Z,25.90
2023-04-30T23:23:33.306Z,25.90
2023-04-30T23:25:41.101Z,25.90
2023-04-30T23:27:48.438Z,26.00
2023-04-30T23:29:57.831Z,26.00
2023-04-30T23:32:05.428Z,26.00
2023-04-30T23:34:12.652Z,26.00
2023-04-30T23:36:19.940Z,26.10
2023-04-30T23:38:27.159Z,26.10
2023-04-30T23:40:35.093Z,26.20
2023-04-30T23:42:42.496Z,26.20
2023-04-30T23:44:49.578Z,26.30
2023-04-30T23:46:58.656Z,26.40
2023-04-30T23:49:06.036Z,26.50
2023-04-30T23:51:13.535Z,26.60
2023-04-30T23:53:20.915Z,26.60
2023-04-30T23:55:27.792Z,26.70
2023-04-30T23:57:34.914Z,26.80
2023-04-30T23:59:43.531Z,26.80
